sensor_id;sensor_type;location;lat;lon;timestamp;P1;durP1;ratioP1;P2;durP2;ratioP2
37791;SDS011;29527;55.766;37.570;2022-08-21T00:02:25;70.78;;;51.35;;
37791;SDS011;29527;55.766;37.570;2022-08-21T00:04:52;71.57;;;48.53;;
37791;SDS011;29527;55.766;37.570;2022-08-21T00:07:19;74.95;;;50.60;;
37791;SDS011;29527;55.766;37.570;2022-08-21T00:09:45;70.93;;;49.95;;
37791;SDS011;29527;55.766;37.570;2022-08-21T00:12:10;70.22;;;50.28;;
37791;SDS011;29527;55.766;37.570;2022-08-21T00:14:36;68.20;;;49.53;;
37791;SDS011;29527;55.766;37.570;2022-08-21T00:17:03;67.93;;;50.25;;
37791;SDS011;29527;55.766;37.570;2022-08-21T00:19:29;67.82;;;50.03;;
37791;SDS011;29527;55.766;37.570;2022-08-21T00:21:55;75.43;;;51.90;;
37791;SDS011;29527;55.766;37.570;2022-08-21T00:24:21;71.97;;;49.30;;
37791;SDS011;29527;55.766;37.570;2022-08-21T00:26:47;71.97;;;49.38;;
37791;SDS011;29527;55.766;37.570;2022-08-21T00:29:13;71.05;;;51.90;;
37791;SDS011;29527;55.766;37.570;2022-08-21T00:31:39;73.35;;;51.15;;
37791;SDS011;29527;55.766;37.570;2022-08-21T00:34:05;74.13;;;50.88;;
37791;SDS011;29527;55.766;37.570;2022-08-21T00:36:32;72.45;;;49.60;;
37791;SDS011;29527;55.766;37.570;2022-08-21T00:38:58;72.15;;;48.53;;
37791;SDS011;29527;55.766;37.570;2022-08-21T00:41:23;72.43;;;49.97;;
37791;SDS011;29527;55.766;37.570;2022-08-21T00:43:49;72.53;;;48.78;;
37791;SDS011;29527;55.766;37.570;2022-08-21T00:46:15;68.05;;;49.60;;
37791;SDS011;29527;55.766;37.570;2022-08-21T00:48:41;70.38;;;49.53;;
37791;SDS011;29527;55.766;37.570;2022-08-21T00:51:11;72.43;;;49.75;;
37791;SDS011;29527;55.766;37.570;2022-08-21T00:53:40;66.78;;;47.17;;
37791;SDS011;29527;55.766;37.570;2022-08-21T00:56:09;66.43;;;47.38;;
37791;SDS011;29527;55.766;37.570;2022-08-21T00:58:35;65.70;;;48.10;;
37791;SDS011;29527;55.766;37.570;2022-08-21T01:01:04;68.30;;;46.95;;
37791;SDS011;29527;55.766;37.570;2022-08-21T01:03:31;65.82;;;45.72;;
37791;SDS011;29527;55.766;37.570;2022-08-21T01:05:57;67.88;;;45.30;;
37791;SDS011;29527;55.766;37.570;2022-08-21T01:08:23;68.60;;;45.95;;
37791;SDS011;29527;55.766;37.570;2022-08-21T01:10:50;63.28;;;44.92;;
37791;SDS011;29527;55.766;37.570;2022-08-21T01:13:18;67.45;;;44.83;;
37791;SDS011;29527;55.766;37.570;2022-08-21T01:15:47;66.43;;;44.63;;
37791;SDS011;29527;55.766;37.570;2022-08-21T01:18:15;65.15;;;44.60;;
37791;SDS011;29527;55.766;37.570;2022-08-21T01:21:00;73.03;;;43.85;;
37791;SDS011;29527;55.766;37.570;2022-08-21T01:23:32;61.70;;;44.08;;
37791;SDS011;29527;55.766;37.570;2022-08-21T01:26:00;65.72;;;43.80;;
37791;SDS011;29527;55.766;37.570;2022-08-21T01:28:25;59.60;;;43.45;;
37791;SDS011;29527;55.766;37.570;2022-08-21T01:30:53;60.28;;;41.95;;
37791;SDS011;29527;55.766;37.570;2022-08-21T01:33:19;64.10;;;41.65;;
37791;SDS011;29527;55.766;37.570;2022-08-21T01:35:49;58.33;;;41.58;;
37791;SDS011;29527;55.766;37.570;2022-08-21T01:38:14;66.40;;;41.08;;
37791;SDS011;29527;55.766;37.570;2022-08-21T01:40:50;55.40;;;40.53;;
37791;SDS011;29527;55.766;37.570;2022-08-21T01:43:16;59.60;;;40.25;;
37791;SDS011;29527;55.766;37.570;2022-08-21T01:45:41;60.88;;;41.10;;
37791;SDS011;29527;55.766;37.570;2022-08-21T01:48:07;60.80;;;40.70;;
37791;SDS011;29527;55.766;37.570;2022-08-21T01:50:32;57.17;;;38.58;;
37791;SDS011;29527;55.766;37.570;2022-08-21T01:52:58;59.20;;;40.28;;
37791;SDS011;29527;55.766;37.570;2022-08-21T01:55:23;57.05;;;38.67;;
37791;SDS011;29527;55.766;37.570;2022-08-21T01:57:49;51.40;;;37.88;;
37791;SDS011;29527;55.766;37.570;2022-08-21T02:00:16;53.45;;;37.65;;
37791;SDS011;29527;55.766;37.570;2022-08-21T02:02:44;53.45;;;38.58;;
37791;SDS011;29527;55.766;37.570;2022-08-21T02:05:10;56.42;;;39.55;;
37791;SDS011;29527;55.766;37.570;2022-08-21T02:07:38;56.85;;;38.25;;
37791;SDS011;29527;55.766;37.570;2022-08-21T02:10:06;57.92;;;38.50;;
37791;SDS011;29527;55.766;37.570;2022-08-21T02:12:32;59.38;;;37.63;;
37791;SDS011;29527;55.766;37.570;2022-08-21T02:15:18;56.88;;;35.88;;
37791;SDS011;29527;55.766;37.570;2022-08-21T02:17:45;56.63;;;38.67;;
37791;SDS011;29527;55.766;37.570;2022-08-21T02:22:56;50.55;;;36.58;;
37791;SDS011;29527;55.766;37.570;2022-08-21T02:25:22;56.67;;;37.92;;
37791;SDS011;29527;55.766;37.570;2022-08-21T02:27:49;56.17;;;36.85;;
37791;SDS011;29527;55.766;37.570;2022-08-21T02:30:35;50.72;;;34.65;;
37791;SDS011;29527;55.766;37.570;2022-08-21T02:33:04;54.80;;;36.65;;
37791;SDS011;29527;55.766;37.570;2022-08-21T02:35:30;52.88;;;35.08;;
37791;SDS011;29527;55.766;37.570;2022-08-21T02:37:58;53.83;;;35.72;;
37791;SDS011;29527;55.766;37.570;2022-08-21T02:40:29;49.90;;;35.28;;
37791;SDS011;29527;55.766;37.570;2022-08-21T02:42:57;57.38;;;36.67;;
37791;SDS011;29527;55.766;37.570;2022-08-21T02:45:23;50.45;;;35.42;;
37791;SDS011;29527;55.766;37.570;2022-08-21T02:47:50;49.70;;;34.60;;
37791;SDS011;29527;55.766;37.570;2022-08-21T02:50:19;52.22;;;35.75;;
37791;SDS011;29527;55.766;37.570;2022-08-21T02:52:46;53.30;;;34.72;;
37791;SDS011;29527;55.766;37.570;2022-08-21T02:55:11;55.40;;;36.17;;
37791;SDS011;29527;55.766;37.570;2022-08-21T02:57:37;52.72;;;36.85;;
37791;SDS011;29527;55.766;37.570;2022-08-21T03:00:03;52.17;;;36.58;;
37791;SDS011;29527;55.766;37.570;2022-08-21T03:02:30;54.60;;;35.58;;
37791;SDS011;29527;55.766;37.570;2022-08-21T03:04:56;53.08;;;35.22;;
37791;SDS011;29527;55.766;37.570;2022-08-21T03:07:21;54.38;;;35.33;;
37791;SDS011;29527;55.766;37.570;2022-08-21T03:09:47;55.35;;;37.08;;
37791;SDS011;29527;55.766;37.570;2022-08-21T03:12:12;57.40;;;35.92;;
37791;SDS011;29527;55.766;37.570;2022-08-21T03:14:38;52.13;;;37.08;;
37791;SDS011;29527;55.766;37.570;2022-08-21T03:17:04;53.63;;;36.20;;
37791;SDS011;29527;55.766;37.570;2022-08-21T03:19:29;58.03;;;37.70;;
37791;SDS011;29527;55.766;37.570;2022-08-21T03:21:55;49.10;;;36.90;;
37791;SDS011;29527;55.766;37.570;2022-08-21T03:24:20;53.25;;;36.83;;
37791;SDS011;29527;55.766;37.570;2022-08-21T03:26:46;54.53;;;35.05;;
37791;SDS011;29527;55.766;37.570;2022-08-21T03:29:11;53.47;;;36.28;;
37791;SDS011;29527;55.766;37.570;2022-08-21T03:31:37;53.40;;;36.30;;
37791;SDS011;29527;55.766;37.570;2022-08-21T03:34:02;51.42;;;36.33;;
37791;SDS011;29527;55.766;37.570;2022-08-21T03:36:28;54.63;;;37.03;;
37791;SDS011;29527;55.766;37.570;2022-08-21T03:38:53;55.72;;;36.80;;
37791;SDS011;29527;55.766;37.570;2022-08-21T03:41:18;52.50;;;36.10;;
37791;SDS011;29527;55.766;37.570;2022-08-21T03:43:44;55.38;;;36.90;;
37791;SDS011;29527;55.766;37.570;2022-08-21T03:46:09;57.83;;;37.38;;
37791;SDS011;29527;55.766;37.570;2022-08-21T03:48:36;50.00;;;38.22;;
37791;SDS011;29527;55.766;37.570;2022-08-21T03:51:02;54.80;;;37.97;;
37791;SDS011;29527;55.766;37.570;2022-08-21T03:53:28;52.72;;;36.58;;
37791;SDS011;29527;55.766;37.570;2022-08-21T03:55:55;55.70;;;36.80;;
37791;SDS011;29527;55.766;37.570;2022-08-21T03:58:22;58.10;;;36.92;;
37791;SDS011;29527;55.766;37.570;2022-08-21T04:00:50;52.33;;;36.47;;
37791;SDS011;29527;55.766;37.570;2022-08-21T04:03:19;55.90;;;37.45;;
37791;SDS011;29527;55.766;37.570;2022-08-21T04:05:45;50.17;;;38.17;;
37791;SDS011;29527;55.766;37.570;2022-08-21T04:08:11;59.47;;;38.13;;
37791;SDS011;29527;55.766;37.570;2022-08-21T04:10:38;46.60;;;35.88;;
37791;SDS011;29527;55.766;37.570;2022-08-21T04:13:05;48.72;;;36.03;;
37791;SDS011;29527;55.766;37.570;2022-08-21T04:15:31;48.40;;;37.08;;
37791;SDS011;29527;55.766;37.570;2022-08-21T04:17:57;52.60;;;38.00;;
37791;SDS011;29527;55.766;37.570;2022-08-21T04:20:23;51.20;;;38.95;;
37791;SDS011;29527;55.766;37.570;2022-08-21T04:22:50;51.13;;;38.28;;
37791;SDS011;29527;55.766;37.570;2022-08-21T04:25:18;53.75;;;38.47;;
37791;SDS011;29527;55.766;37.570;2022-08-21T04:27:45;56.42;;;37.25;;
37791;SDS011;29527;55.766;37.570;2022-08-21T04:30:11;50.88;;;39.20;;
37791;SDS011;29527;55.766;37.570;2022-08-21T04:32:41;50.75;;;37.30;;
37791;SDS011;29527;55.766;37.570;2022-08-21T04:35:09;48.13;;;38.65;;
37791;SDS011;29527;55.766;37.570;2022-08-21T04:37:36;52.22;;;39.38;;
37791;SDS011;29527;55.766;37.570;2022-08-21T04:40:02;47.28;;;38.33;;
37791;SDS011;29527;55.766;37.570;2022-08-21T04:42:29;55.05;;;40.40;;
37791;SDS011;29527;55.766;37.570;2022-08-21T04:44:54;52.80;;;38.95;;
37791;SDS011;29527;55.766;37.570;2022-08-21T04:47:21;53.35;;;39.90;;
37791;SDS011;29527;55.766;37.570;2022-08-21T04:49:48;55.05;;;40.65;;
37791;SDS011;29527;55.766;37.570;2022-08-21T04:52:15;52.78;;;40.22;;
37791;SDS011;29527;55.766;37.570;2022-08-21T04:54:44;60.45;;;40.80;;
37791;SDS011;29527;55.766;37.570;2022-08-21T04:57:10;55.13;;;40.17;;
37791;SDS011;29527;55.766;37.570;2022-08-21T04:59:41;54.28;;;42.13;;
37791;SDS011;29527;55.766;37.570;2022-08-21T05:02:10;55.95;;;41.30;;
37791;SDS011;29527;55.766;37.570;2022-08-21T05:04:37;51.78;;;42.58;;
37791;SDS011;29527;55.766;37.570;2022-08-21T05:07:07;53.17;;;42.67;;
37791;SDS011;29527;55.766;37.570;2022-08-21T05:09:37;52.38;;;40.97;;
37791;SDS011;29527;55.766;37.570;2022-08-21T05:12:03;53.53;;;40.63;;
37791;SDS011;29527;55.766;37.570;2022-08-21T05:14:29;49.13;;;39.92;;
37791;SDS011;29527;55.766;37.570;2022-08-21T05:16:55;54.70;;;40.78;;
37791;SDS011;29527;55.766;37.570;2022-08-21T05:19:20;50.58;;;39.65;;
37791;SDS011;29527;55.766;37.570;2022-08-21T05:21:46;45.60;;;40.22;;
37791;SDS011;29527;55.766;37.570;2022-08-21T05:24:15;53.25;;;41.80;;
37791;SDS011;29527;55.766;37.570;2022-08-21T05:26:41;49.05;;;39.38;;
37791;SDS011;29527;55.766;37.570;2022-08-21T05:29:07;49.53;;;41.05;;
37791;SDS011;29527;55.766;37.570;2022-08-21T05:31:32;49.08;;;39.50;;
37791;SDS011;29527;55.766;37.570;2022-08-21T05:33:58;52.15;;;40.63;;
37791;SDS011;29527;55.766;37.570;2022-08-21T05:36:24;50.90;;;41.25;;
37791;SDS011;29527;55.766;37.570;2022-08-21T05:38:50;44.92;;;40.03;;
37791;SDS011;29527;55.766;37.570;2022-08-21T05:41:15;50.58;;;40.80;;
37791;SDS011;29527;55.766;37.570;2022-08-21T05:43:41;50.08;;;42.13;;
37791;SDS011;29527;55.766;37.570;2022-08-21T05:46:06;45.47;;;39.92;;
37791;SDS011;29527;55.766;37.570;2022-08-21T05:48:33;49.10;;;40.58;;
37791;SDS011;29527;55.766;37.570;2022-08-21T05:51:04;45.72;;;40.83;;
37791;SDS011;29527;55.766;37.570;2022-08-21T05:53:37;48.13;;;40.88;;
37791;SDS011;29527;55.766;37.570;2022-08-21T05:56:04;47.95;;;40.67;;
37791;SDS011;29527;55.766;37.570;2022-08-21T05:58:30;42.92;;;38.28;;
37791;SDS011;29527;55.766;37.570;2022-08-21T06:00:58;47.28;;;39.75;;
37791;SDS011;29527;55.766;37.570;2022-08-21T06:03:26;43.97;;;39.17;;
37791;SDS011;29527;55.766;37.570;2022-08-21T06:05:53;45.10;;;40.30;;
37791;SDS011;29527;55.766;37.570;2022-08-21T06:08:19;45.03;;;39.95;;
37791;SDS011;29527;55.766;37.570;2022-08-21T06:10:46;44.15;;;39.53;;
37791;SDS011;29527;55.766;37.570;2022-08-21T06:13:12;43.08;;;37.28;;
37791;SDS011;29527;55.766;37.570;2022-08-21T06:15:39;45.25;;;37.47;;
37791;SDS011;29527;55.766;37.570;2022-08-21T06:18:05;45.00;;;37.65;;
37791;SDS011;29527;55.766;37.570;2022-08-21T06:20:31;42.92;;;36.47;;
37791;SDS011;29527;55.766;37.570;2022-08-21T06:22:57;42.10;;;37.60;;
37791;SDS011;29527;55.766;37.570;2022-08-21T06:25:23;43.88;;;38.95;;
37791;SDS011;29527;55.766;37.570;2022-08-21T06:27:49;43.33;;;38.60;;
37791;SDS011;29527;55.766;37.570;2022-08-21T06:30:16;41.92;;;37.38;;
37791;SDS011;29527;55.766;37.570;2022-08-21T06:32:42;42.15;;;37.63;;
37791;SDS011;29527;55.766;37.570;2022-08-21T06:35:07;47.67;;;38.83;;
37791;SDS011;29527;55.766;37.570;2022-08-21T06:37:33;43.00;;;38.47;;
37791;SDS011;29527;55.766;37.570;2022-08-21T06:39:59;46.70;;;39.35;;
37791;SDS011;29527;55.766;37.570;2022-08-21T06:42:24;44.40;;;37.45;;
37791;SDS011;29527;55.766;37.570;2022-08-21T06:44:50;44.22;;;38.47;;
37791;SDS011;29527;55.766;37.570;2022-08-21T06:47:15;45.05;;;39.15;;
37791;SDS011;29527;55.766;37.570;2022-08-21T06:49:41;49.10;;;40.25;;
37791;SDS011;29527;55.766;37.570;2022-08-21T06:52:10;46.60;;;39.55;;
37791;SDS011;29527;55.766;37.570;2022-08-21T06:54:37;46.25;;;37.88;;
37791;SDS011;29527;55.766;37.570;2022-08-21T06:57:03;45.53;;;36.42;;
37791;SDS011;29527;55.766;37.570;2022-08-21T06:59:29;40.78;;;36.35;;
37791;SDS011;29527;55.766;37.570;2022-08-21T07:01:55;44.05;;;36.97;;
37791;SDS011;29527;55.766;37.570;2022-08-21T07:04:21;40.47;;;36.22;;
37791;SDS011;29527;55.766;37.570;2022-08-21T07:06:46;40.83;;;35.65;;
37791;SDS011;29527;55.766;37.570;2022-08-21T07:09:12;39.85;;;35.67;;
37791;SDS011;29527;55.766;37.570;2022-08-21T07:11:37;40.78;;;36.05;;
37791;SDS011;29527;55.766;37.570;2022-08-21T07:14:03;39.90;;;35.58;;
37791;SDS011;29527;55.766;37.570;2022-08-21T07:16:29;41.78;;;36.45;;
37791;SDS011;29527;55.766;37.570;2022-08-21T07:18:54;46.35;;;36.42;;
37791;SDS011;29527;55.766;37.570;2022-08-21T07:21:20;40.42;;;35.85;;
37791;SDS011;29527;55.766;37.570;2022-08-21T07:23:48;44.00;;;36.30;;
37791;SDS011;29527;55.766;37.570;2022-08-21T07:26:16;42.72;;;36.13;;
37791;SDS011;29527;55.766;37.570;2022-08-21T07:28:46;39.28;;;33.20;;
37791;SDS011;29527;55.766;37.570;2022-08-21T07:31:14;38.30;;;34.20;;
37791;SDS011;29527;55.766;37.570;2022-08-21T07:33:42;37.50;;;33.10;;
37791;SDS011;29527;55.766;37.570;2022-08-21T07:36:08;39.05;;;31.50;;
37791;SDS011;29527;55.766;37.570;2022-08-21T07:38:34;36.67;;;32.72;;
37791;SDS011;29527;55.766;37.570;2022-08-21T07:41:00;37.42;;;32.38;;
37791;SDS011;29527;55.766;37.570;2022-08-21T07:43:27;37.90;;;33.78;;
37791;SDS011;29527;55.766;37.570;2022-08-21T07:45:53;40.78;;;33.25;;
37791;SDS011;29527;55.766;37.570;2022-08-21T07:48:20;38.47;;;34.03;;
37791;SDS011;29527;55.766;37.570;2022-08-21T07:50:46;39.35;;;33.00;;
37791;SDS011;29527;55.766;37.570;2022-08-21T07:53:12;35.78;;;29.63;;
37791;SDS011;29527;55.766;37.570;2022-08-21T07:55:37;36.75;;;31.02;;
37791;SDS011;29527;55.766;37.570;2022-08-21T07:58:02;48.83;;;31.77;;
37791;SDS011;29527;55.766;37.570;2022-08-21T08:00:28;39.35;;;31.98;;
37791;SDS011;29527;55.766;37.570;2022-08-21T08:02:55;37.70;;;30.65;;
37791;SDS011;29527;55.766;37.570;2022-08-21T08:05:22;38.28;;;31.75;;
37791;SDS011;29527;55.766;37.570;2022-08-21T08:07:49;40.25;;;34.08;;
37791;SDS011;29527;55.766;37.570;2022-08-21T08:10:15;40.53;;;33.22;;
37791;SDS011;29527;55.766;37.570;2022-08-21T08:12:42;45.15;;;33.78;;
37791;SDS011;29527;55.766;37.570;2022-08-21T08:15:10;39.08;;;34.47;;
37791;SDS011;29527;55.766;37.570;2022-08-21T08:17:43;40.63;;;32.72;;
37791;SDS011;29527;55.766;37.570;2022-08-21T08:20:09;40.38;;;31.45;;
37791;SDS011;29527;55.766;37.570;2022-08-21T08:22:37;43.33;;;29.38;;
37791;SDS011;29527;55.766;37.570;2022-08-21T08:25:04;37.17;;;27.33;;
37791;SDS011;29527;55.766;37.570;2022-08-21T08:27:31;39.05;;;26.83;;
37791;SDS011;29527;55.766;37.570;2022-08-21T08:29:57;37.38;;;27.05;;
37791;SDS011;29527;55.766;37.570;2022-08-21T08:32:23;37.60;;;26.00;;
37791;SDS011;29527;55.766;37.570;2022-08-21T08:35:00;32.95;;;25.52;;
37791;SDS011;29527;55.766;37.570;2022-08-21T08:37:25;36.60;;;25.58;;
37791;SDS011;29527;55.766;37.570;2022-08-21T08:39:51;32.85;;;25.63;;
37791;SDS011;29527;55.766;37.570;2022-08-21T08:45:04;38.67;;;25.15;;
37791;SDS011;29527;55.766;37.570;2022-08-21T08:47:34;33.47;;;23.88;;
37791;SDS011;29527;55.766;37.570;2022-08-21T08:50:07;36.53;;;24.10;;
37791;SDS011;29527;55.766;37.570;2022-08-21T08:52:41;32.08;;;23.33;;
37791;SDS011;29527;55.766;37.570;2022-08-21T08:57:43;32.50;;;19.30;;
37791;SDS011;29527;55.766;37.570;2022-08-21T09:00:11;29.45;;;19.85;;
37791;SDS011;29527;55.766;37.570;2022-08-21T09:02:42;29.58;;;18.85;;
37791;SDS011;29527;55.766;37.570;2022-08-21T09:05:09;26.98;;;18.23;;
37791;SDS011;29527;55.766;37.570;2022-08-21T09:07:57;32.15;;;18.27;;
37791;SDS011;29527;55.766;37.570;2022-08-21T09:10:58;31.35;;;18.02;;
37791;SDS011;29527;55.766;37.570;2022-08-21T09:16:24;25.92;;;16.15;;
37791;SDS011;29527;55.766;37.570;2022-08-21T09:22:16;24.50;;;16.95;;
37791;SDS011;29527;55.766;37.570;2022-08-21T09:27:17;25.58;;;16.60;;
37791;SDS011;29527;55.766;37.570;2022-08-21T09:29:46;27.70;;;16.20;;
37791;SDS011;29527;55.766;37.570;2022-08-21T09:37:20;25.95;;;16.63;;
37791;SDS011;29527;55.766;37.570;2022-08-21T09:39:46;25.85;;;16.35;;
37791;SDS011;29527;55.766;37.570;2022-08-21T09:42:12;22.55;;;14.07;;
37791;SDS011;29527;55.766;37.570;2022-08-21T09:45:00;27.40;;;15.88;;
37791;SDS011;29527;55.766;37.570;2022-08-21T09:47:32;31.38;;;16.42;;
37791;SDS011;29527;55.766;37.570;2022-08-21T09:50:06;24.95;;;16.95;;
37791;SDS011;29527;55.766;37.570;2022-08-21T09:52:33;26.73;;;17.45;;
37791;SDS011;29527;55.766;37.570;2022-08-21T09:54:59;25.08;;;16.23;;
37791;SDS011;29527;55.766;37.570;2022-08-21T09:57:26;24.52;;;16.38;;
37791;SDS011;29527;55.766;37.570;2022-08-21T10:00:27;25.13;;;15.27;;
37791;SDS011;29527;55.766;37.570;2022-08-21T10:03:07;20.65;;;14.52;;
37791;SDS011;29527;55.766;37.570;2022-08-21T10:05:33;24.15;;;16.30;;
37791;SDS011;29527;55.766;37.570;2022-08-21T10:08:00;25.73;;;16.48;;
37791;SDS011;29527;55.766;37.570;2022-08-21T10:10:28;24.27;;;16.10;;
37791;SDS011;29527;55.766;37.570;2022-08-21T10:15:29;26.17;;;15.80;;
37791;SDS011;29527;55.766;37.570;2022-08-21T10:18:22;29.02;;;15.60;;
37791;SDS011;29527;55.766;37.570;2022-08-21T10:21:13;28.90;;;15.50;;
37791;SDS011;29527;55.766;37.570;2022-08-21T10:24:03;20.80;;;15.07;;
37791;SDS011;29527;55.766;37.570;2022-08-21T10:26:57;26.20;;;15.52;;
37791;SDS011;29527;55.766;37.570;2022-08-21T10:40:25;26.40;;;15.85;;
37791;SDS011;29527;55.766;37.570;2022-08-21T10:45:42;19.80;;;13.30;;
37791;SDS011;29527;55.766;37.570;2022-08-21T10:54:19;19.52;;;11.23;;
37791;SDS011;29527;55.766;37.570;2022-08-21T10:56:57;18.48;;;10.95;;
37791;SDS011;29527;55.766;37.570;2022-08-21T11:00:04;16.92;;;10.75;;
37791;SDS011;29527;55.766;37.570;2022-08-21T11:02:30;19.98;;;10.65;;
37791;SDS011;29527;55.766;37.570;2022-08-21T11:08:11;15.98;;;8.68;;
37791;SDS011;29527;55.766;37.570;2022-08-21T11:10:42;14.82;;;7.93;;
37791;SDS011;29527;55.766;37.570;2022-08-21T11:18:55;18.48;;;6.43;;
37791;SDS011;29527;55.766;37.570;2022-08-21T11:27:04;17.83;;;7.05;;
37791;SDS011;29527;55.766;37.570;2022-08-21T11:29:40;17.63;;;8.43;;
37791;SDS011;29527;55.766;37.570;2022-08-21T11:32:16;23.95;;;9.15;;
37791;SDS011;29527;55.766;37.570;2022-08-21T11:35:12;17.67;;;8.98;;
37791;SDS011;29527;55.766;37.570;2022-08-21T11:40:35;21.60;;;10.23;;
37791;SDS011;29527;55.766;37.570;2022-08-21T11:45:54;25.70;;;14.93;;
37791;SDS011;29527;55.766;37.570;2022-08-21T11:50:52;30.30;;;15.73;;
37791;SDS011;29527;55.766;37.570;2022-08-21T11:53:32;23.98;;;14.95;;
37791;SDS011;29527;55.766;37.570;2022-08-21T11:58:43;29.98;;;15.43;;
37791;SDS011;29527;55.766;37.570;2022-08-21T12:01:17;30.35;;;14.55;;
37791;SDS011;29527;55.766;37.570;2022-08-21T12:03:55;25.10;;;14.77;;
37791;SDS011;29527;55.766;37.570;2022-08-21T12:06:28;20.63;;;12.15;;
37791;SDS011;29527;55.766;37.570;2022-08-21T12:09:06;19.88;;;11.93;;
37791;SDS011;29527;55.766;37.570;2022-08-21T12:11:45;20.08;;;13.15;;
37791;SDS011;29527;55.766;37.570;2022-08-21T12:14:14;28.42;;;13.32;;
37791;SDS011;29527;55.766;37.570;2022-08-21T12:16:42;23.27;;;11.77;;
37791;SDS011;29527;55.766;37.570;2022-08-21T12:19:12;25.35;;;13.38;;
37791;SDS011;29527;55.766;37.570;2022-08-21T12:24:37;19.17;;;12.20;;
37791;SDS011;29527;55.766;37.570;2022-08-21T12:32:30;21.13;;;11.18;;
37791;SDS011;29527;55.766;37.570;2022-08-21T12:35:15;20.45;;;10.60;;
37791;SDS011;29527;55.766;37.570;2022-08-21T12:37:45;19.48;;;11.15;;
37791;SDS011;29527;55.766;37.570;2022-08-21T12:42:50;21.37;;;11.37;;
37791;SDS011;29527;55.766;37.570;2022-08-21T12:56:13;14.63;;;8.32;;
37791;SDS011;29527;55.766;37.570;2022-08-21T12:58:44;18.30;;;8.95;;
37791;SDS011;29527;55.766;37.570;2022-08-21T13:01:31;17.45;;;9.90;;
37791;SDS011;29527;55.766;37.570;2022-08-21T13:04:41;20.75;;;9.73;;
37791;SDS011;29527;55.766;37.570;2022-08-21T13:06:52;19.60;;;10.65;;
37791;SDS011;29527;55.766;37.570;2022-08-21T13:09:22;17.50;;;11.02;;
37791;SDS011;29527;55.766;37.570;2022-08-21T13:11:50;15.07;;;9.45;;
37791;SDS011;29527;55.766;37.570;2022-08-21T13:14:25;14.73;;;8.40;;
37791;SDS011;29527;55.766;37.570;2022-08-21T13:16:56;16.05;;;7.50;;
37791;SDS011;29527;55.766;37.570;2022-08-21T13:19:23;17.67;;;7.57;;
37791;SDS011;29527;55.766;37.570;2022-08-21T13:21:50;15.60;;;7.50;;
37791;SDS011;29527;55.766;37.570;2022-08-21T13:26:54;17.55;;;7.70;;
37791;SDS011;29527;55.766;37.570;2022-08-21T13:29:21;23.73;;;8.02;;
37791;SDS011;29527;55.766;37.570;2022-08-21T13:31:53;19.60;;;8.48;;
37791;SDS011;29527;55.766;37.570;2022-08-21T13:34:23;22.85;;;8.68;;
37791;SDS011;29527;55.766;37.570;2022-08-21T13:36:52;17.67;;;8.68;;
37791;SDS011;29527;55.766;37.570;2022-08-21T13:39:21;22.10;;;10.02;;
37791;SDS011;29527;55.766;37.570;2022-08-21T13:41:48;16.42;;;9.75;;
37791;SDS011;29527;55.766;37.570;2022-08-21T13:44:24;16.10;;;9.68;;
37791;SDS011;29527;55.766;37.570;2022-08-21T13:47:06;16.65;;;9.50;;
37791;SDS011;29527;55.766;37.570;2022-08-21T13:49:38;21.98;;;9.15;;
37791;SDS011;29527;55.766;37.570;2022-08-21T13:52:13;24.80;;;9.15;;
37791;SDS011;29527;55.766;37.570;2022-08-21T13:57:27;18.98;;;9.18;;
37791;SDS011;29527;55.766;37.570;2022-08-21T14:02:50;26.13;;;9.48;;
37791;SDS011;29527;55.766;37.570;2022-08-21T14:05:21;16.02;;;8.88;;
37791;SDS011;29527;55.766;37.570;2022-08-21T14:08:02;15.05;;;8.88;;
37791;SDS011;29527;55.766;37.570;2022-08-21T14:10:43;17.55;;;9.32;;
37791;SDS011;29527;55.766;37.570;2022-08-21T14:13:26;14.52;;;8.45;;
37791;SDS011;29527;55.766;37.570;2022-08-21T14:15:59;17.58;;;8.50;;
37791;SDS011;29527;55.766;37.570;2022-08-21T14:18:26;12.27;;;5.82;;
37791;SDS011;29527;55.766;37.570;2022-08-21T14:21:03;13.80;;;6.20;;
37791;SDS011;29527;55.766;37.570;2022-08-21T14:23:33;9.80;;;3.90;;
37791;SDS011;29527;55.766;37.570;2022-08-21T14:25:59;9.52;;;4.07;;
37791;SDS011;29527;55.766;37.570;2022-08-21T14:28:28;13.77;;;4.50;;
37791;SDS011;29527;55.766;37.570;2022-08-21T14:30:57;15.25;;;5.05;;
37791;SDS011;29527;55.766;37.570;2022-08-21T14:35:56;9.23;;;4.20;;
37791;SDS011;29527;55.766;37.570;2022-08-21T14:38:24;12.40;;;4.00;;
37791;SDS011;29527;55.766;37.570;2022-08-21T14:40:51;9.05;;;4.57;;
37791;SDS011;29527;55.766;37.570;2022-08-21T14:43:20;10.23;;;4.55;;
37791;SDS011;29527;55.766;37.570;2022-08-21T14:45:46;16.73;;;4.28;;
37791;SDS011;29527;55.766;37.570;2022-08-21T14:48:12;12.05;;;3.53;;
37791;SDS011;29527;55.766;37.570;2022-08-21T14:50:38;7.78;;;3.45;;
37791;SDS011;29527;55.766;37.570;2022-08-21T14:53:04;10.60;;;3.45;;
37791;SDS011;29527;55.766;37.570;2022-08-21T14:55:30;7.50;;;3.20;;
37791;SDS011;29527;55.766;37.570;2022-08-21T14:58:16;10.45;;;2.80;;
37791;SDS011;29527;55.766;37.570;2022-08-21T15:00:42;8.50;;;3.30;;
37791;SDS011;29527;55.766;37.570;2022-08-21T15:03:07;13.75;;;2.65;;
37791;SDS011;29527;55.766;37.570;2022-08-21T15:05:33;11.75;;;3.42;;
37791;SDS011;29527;55.766;37.570;2022-08-21T15:07:59;6.80;;;2.70;;
37791;SDS011;29527;55.766;37.570;2022-08-21T15:10:25;13.93;;;2.63;;
37791;SDS011;29527;55.766;37.570;2022-08-21T15:12:50;8.35;;;2.92;;
37791;SDS011;29527;55.766;37.570;2022-08-21T15:15:16;14.05;;;2.78;;
37791;SDS011;29527;55.766;37.570;2022-08-21T15:17:41;8.05;;;2.30;;
37791;SDS011;29527;55.766;37.570;2022-08-21T15:20:07;8.90;;;2.28;;
37791;SDS011;29527;55.766;37.570;2022-08-21T15:22:34;8.95;;;2.00;;
37791;SDS011;29527;55.766;37.570;2022-08-21T15:24:59;10.25;;;2.55;;
37791;SDS011;29527;55.766;37.570;2022-08-21T15:27:27;6.65;;;2.13;;
37791;SDS011;29527;55.766;37.570;2022-08-21T15:29:53;6.05;;;2.30;;
37791;SDS011;29527;55.766;37.570;2022-08-21T15:32:23;10.98;;;2.70;;
37791;SDS011;29527;55.766;37.570;2022-08-21T15:34:52;7.68;;;2.55;;
37791;SDS011;29527;55.766;37.570;2022-08-21T15:37:18;5.15;;;2.33;;
37791;SDS011;29527;55.766;37.570;2022-08-21T15:39:45;12.13;;;2.45;;
37791;SDS011;29527;55.766;37.570;2022-08-21T15:42:10;8.80;;;2.60;;
37791;SDS011;29527;55.766;37.570;2022-08-21T15:44:40;9.63;;;2.22;;
37791;SDS011;29527;55.766;37.570;2022-08-21T15:47:11;8.93;;;2.60;;
37791;SDS011;29527;55.766;37.570;2022-08-21T15:49:40;7.60;;;2.40;;
37791;SDS011;29527;55.766;37.570;2022-08-21T15:52:09;6.45;;;2.17;;
37791;SDS011;29527;55.766;37.570;2022-08-21T15:54:38;7.25;;;2.05;;
37791;SDS011;29527;55.766;37.570;2022-08-21T15:57:03;9.75;;;2.10;;
37791;SDS011;29527;55.766;37.570;2022-08-21T15:59:29;10.52;;;2.30;;
37791;SDS011;29527;55.766;37.570;2022-08-21T16:02:02;8.02;;;2.08;;
37791;SDS011;29527;55.766;37.570;2022-08-21T16:04:28;9.85;;;2.58;;
37791;SDS011;29527;55.766;37.570;2022-08-21T16:06:54;12.90;;;2.50;;